sensor_id;sensor_type;location;lat;lon;timestamp;pressure;altitude;pressure_sealevel;temperature;humidity
19150;BME280;9707;49.158;8.632;2022-08-02T00:00:08;100519.13;;;30.53;33.56
19150;BME280;9707;49.158;8.632;2022-08-02T00:02:34;100507.28;;;30.52;33.79
19150;BME280;9707;49.158;8.632;2022-08-02T00:04:59;100508.50;;;30.50;34.13
19150;BME280;9707;49.158;8.632;2022-08-02T00:07:24;100506.78;;;30.49;34.16
19150;BME280;9707;49.158;8.632;2022-08-02T00:09:50;100512.28;;;30.49;33.94
19150;BME280;9707;49.158;8.632;2022-08-02T00:12:15;100510.56;;;30.48;33.89
19150;BME280;9707;49.158;8.632;2022-08-02T00:14:41;100502.50;;;30.46;33.88
19150;BME280;9707;49.158;8.632;2022-08-02T00:17:06;100511.78;;;30.45;33.95
19150;BME280;9707;49.158;8.632;2022-08-02T00:19:32;100520.22;;;30.44;34.12
19150;BME280;9707;49.158;8.632;2022-08-02T00:21:57;100516.81;;;30.42;34.24
19150;BME280;9707;49.158;8.632;2022-08-02T00:24:23;100510.66;;;30.40;34.16
19150;BME280;9707;49.158;8.632;2022-08-02T00:26:48;100519.06;;;30.38;33.87
19150;BME280;9707;49.158;8.632;2022-08-02T00:29:13;100519.25;;;30.37;34.26
19150;BME280;9707;49.158;8.632;2022-08-02T00:31:39;100513.09;;;30.35;34.18
19150;BME280;9707;49.158;8.632;2022-08-02T00:34:04;100514.09;;;30.34;34.05
19150;BME280;9707;49.158;8.632;2022-08-02T00:36:30;100516.19;;;30.32;34.09
19150;BME280;9707;49.158;8.632;2022-08-02T00:38:55;100520.81;;;30.31;34.29
19150;BME280;9707;49.158;8.632;2022-08-02T00:41:21;100512.78;;;30.30;34.22
19150;BME280;9707;49.158;8.632;2022-08-02T00:43:49;100523.78;;;30.30;34.46
19150;BME280;9707;49.158;8.632;2022-08-02T00:46:16;100522.91;;;30.29;34.33
19150;BME280;9707;49.158;8.632;2022-08-02T00:48:41;100517.59;;;30.28;34.06
19150;BME280;9707;49.158;8.632;2022-08-02T00:51:07;100524.13;;;30.27;34.12
19150;BME280;9707;49.158;8.632;2022-08-02T00:53:33;100519.84;;;30.24;34.32
19150;BME280;9707;49.158;8.632;2022-08-02T00:55:59;100536.34;;;30.24;34.38
19150;BME280;9707;49.158;8.632;2022-08-02T00:58:25;100528.28;;;30.23;34.06
19150;BME280;9707;49.158;8.632;2022-08-02T01:00:51;100534.16;;;30.20;34.46
19150;BME280;9707;49.158;8.632;2022-08-02T01:09:59;100537.63;;;30.06;34.70
19150;BME280;9707;49.158;8.632;2022-08-02T01:12:25;100547.75;;;30.05;34.69
19150;BME280;9707;49.158;8.632;2022-08-02T01:14:52;100548.63;;;30.06;34.34
19150;BME280;9707;49.158;8.632;2022-08-02T01:20:08;100543.13;;;30.06;34.67
19150;BME280;9707;49.158;8.632;2022-08-02T01:30:34;100563.75;;;30.02;34.68
19150;BME280;9707;49.158;8.632;2022-08-02T01:33:03;100566.66;;;30.00;34.71
19150;BME280;9707;49.158;8.632;2022-08-02T01:35:38;100566.66;;;30.00;34.40
19150;BME280;9707;49.158;8.632;2022-08-02T01:38:34;100568.56;;;30.00;34.58
19150;BME280;9707;49.158;8.632;2022-08-02T01:41:01;100562.38;;;29.98;34.61
19150;BME280;9707;49.158;8.632;2022-08-02T01:43:28;100573.38;;;29.98;34.69
19150;BME280;9707;49.158;8.632;2022-08-02T01:45:56;100571.66;;;29.97;34.69
19150;BME280;9707;49.158;8.632;2022-08-02T01:48:25;100571.84;;;29.95;34.70
19150;BME280;9707;49.158;8.632;2022-08-02T01:50:53;100563.97;;;29.92;34.62
19150;BME280;9707;49.158;8.632;2022-08-02T01:53:20;100570.31;;;29.93;35.02
19150;BME280;9707;49.158;8.632;2022-08-02T01:55:49;100567.56;;;29.93;34.59
19150;BME280;9707;49.158;8.632;2022-08-02T01:58:16;100567.56;;;29.93;34.70
19150;BME280;9707;49.158;8.632;2022-08-02T02:00:45;100557.59;;;29.92;34.55
19150;BME280;9707;49.158;8.632;2022-08-02T02:03:18;100560.34;;;29.92;34.68
19150;BME280;9707;49.158;8.632;2022-08-02T02:05:46;100547.66;;;29.91;34.85
19150;BME280;9707;49.158;8.632;2022-08-02T02:08:13;100544.06;;;29.90;34.82
19150;BME280;9707;49.158;8.632;2022-08-02T02:10:41;100545.97;;;29.90;34.86
19150;BME280;9707;49.158;8.632;2022-08-02T02:13:10;100544.25;;;29.89;34.73
19150;BME280;9707;49.158;8.632;2022-08-02T02:15:41;100538.75;;;29.89;34.83
19150;BME280;9707;49.158;8.632;2022-08-02T02:18:08;100536.00;;;29.89;34.87
19150;BME280;9707;49.158;8.632;2022-08-02T02:20:35;100540.47;;;29.90;34.55
19150;BME280;9707;49.158;8.632;2022-08-02T02:23:00;100527.78;;;29.89;34.65
19150;BME280;9707;49.158;8.632;2022-08-02T02:25:26;100537.03;;;29.88;34.72
19150;BME280;9707;49.158;8.632;2022-08-02T02:28:00;100535.16;;;29.88;34.62
19150;BME280;9707;49.158;8.632;2022-08-02T02:30:29;100531.53;;;29.88;34.79
19150;BME280;9707;49.158;8.632;2022-08-02T02:32:58;100530.53;;;29.89;34.86
19150;BME280;9707;49.158;8.632;2022-08-02T02:35:26;100536.19;;;29.87;34.86
19150;BME280;9707;49.158;8.632;2022-08-02T02:37:54;100539.09;;;29.86;35.08
19150;BME280;9707;49.158;8.632;2022-08-02T02:40:21;100537.22;;;29.86;34.83
19150;BME280;9707;49.158;8.632;2022-08-02T02:42:48;100539.09;;;29.86;34.93
19150;BME280;9707;49.158;8.632;2022-08-02T02:45:16;100541.84;;;29.86;34.96
19150;BME280;9707;49.158;8.632;2022-08-02T02:47:43;100546.31;;;29.87;34.78
19150;BME280;9707;49.158;8.632;2022-08-02T02:50:09;100546.47;;;29.85;34.93
19150;BME280;9707;49.158;8.632;2022-08-02T02:52:37;100549.22;;;29.85;34.84
19150;BME280;9707;49.158;8.632;2022-08-02T02:55:04;100543.06;;;29.83;35.12
19150;BME280;9707;49.158;8.632;2022-08-02T02:57:31;100544.78;;;29.84;35.27
19150;BME280;9707;49.158;8.632;2022-08-02T02:59:58;100551.13;;;29.85;35.07
19150;BME280;9707;49.158;8.632;2022-08-02T03:02:24;100547.69;;;29.83;35.22
19150;BME280;9707;49.158;8.632;2022-08-02T03:04:51;100551.47;;;29.82;35.30
19150;BME280;9707;49.158;8.632;2022-08-02T03:07:17;100549.78;;;29.81;35.29
19150;BME280;9707;49.158;8.632;2022-08-02T03:09:43;100542.56;;;29.80;35.12
19150;BME280;9707;49.158;8.632;2022-08-02T03:12:09;100553.72;;;29.78;35.03
19150;BME280;9707;49.158;8.632;2022-08-02T03:14:40;100549.28;;;29.77;35.05
19150;BME280;9707;49.158;8.632;2022-08-02T03:17:05;100552.03;;;29.77;35.27
19150;BME280;9707;49.158;8.632;2022-08-02T03:19:31;100548.78;;;29.74;35.46
19150;BME280;9707;49.158;8.632;2022-08-02T03:21:56;100557.03;;;29.74;35.14
19150;BME280;9707;49.158;8.632;2022-08-02T03:24:21;100566.09;;;29.74;35.30
19150;BME280;9707;49.158;8.632;2022-08-02T03:26:47;100564.56;;;29.72;35.33
19150;BME280;9707;49.158;8.632;2022-08-02T03:29:12;100572.78;;;29.72;35.52
19150;BME280;9707;49.158;8.632;2022-08-02T03:31:39;100570.06;;;29.72;35.42
19150;BME280;9707;49.158;8.632;2022-08-02T03:34:05;100565.59;;;29.71;35.34
19150;BME280;9707;49.158;8.632;2022-08-02T03:36:32;100562.19;;;29.69;35.53
19150;BME280;9707;49.158;8.632;2022-08-02T03:38:59;100568.50;;;29.69;35.44
19150;BME280;9707;49.158;8.632;2022-08-02T03:41:27;100569.38;;;29.70;35.31
19150;BME280;9707;49.158;8.632;2022-08-02T03:43:53;100566.97;;;29.67;35.30
19150;BME280;9707;49.158;8.632;2022-08-02T03:46:21;100570.75;;;29.66;35.43
19150;BME280;9707;49.158;8.632;2022-08-02T03:48:49;100568.88;;;29.66;35.27
19150;BME280;9707;49.158;8.632;2022-08-02T03:51:15;100568.88;;;29.66;35.53
19150;BME280;9707;49.158;8.632;2022-08-02T03:53:41;100572.66;;;29.65;35.58
19150;BME280;9707;49.158;8.632;2022-08-02T03:56:08;100563.56;;;29.65;35.63
19150;BME280;9707;49.158;8.632;2022-08-02T03:58:33;100569.06;;;29.65;35.62
19150;BME280;9707;49.158;8.632;2022-08-02T04:00:59;100565.44;;;29.64;35.53
19150;BME280;9707;49.158;8.632;2022-08-02T04:03:25;100569.22;;;29.63;35.57
19150;BME280;9707;49.158;8.632;2022-08-02T04:05:51;100569.06;;;29.65;35.56
19150;BME280;9707;49.158;8.632;2022-08-02T04:08:17;100564.59;;;29.64;35.39
19150;BME280;9707;49.158;8.632;2022-08-02T04:10:42;100570.09;;;29.64;35.36
19150;BME280;9707;49.158;8.632;2022-08-02T04:13:35;100574.06;;;29.61;35.53
19150;BME280;9707;49.158;8.632;2022-08-02T04:16:13;100574.22;;;29.60;35.46
19150;BME280;9707;49.158;8.632;2022-08-02T04:18:45;100572.53;;;29.59;35.74
19150;BME280;9707;49.158;8.632;2022-08-02T04:21:14;100576.28;;;29.58;35.48
19150;BME280;9707;49.158;8.632;2022-08-02T04:23:42;100588.28;;;29.57;35.83
19150;BME280;9707;49.158;8.632;2022-08-02T04:26:10;100580.06;;;29.57;35.70
19150;BME280;9707;49.158;8.632;2022-08-02T04:28:36;100593.78;;;29.57;35.74
19150;BME280;9707;49.158;8.632;2022-08-02T04:31:02;100584.88;;;29.55;35.73
19150;BME280;9707;49.158;8.632;2022-08-02T04:33:28;100587.63;;;29.55;35.65
19150;BME280;9707;49.158;8.632;2022-08-02T04:35:54;100581.25;;;29.54;35.55
19150;BME280;9707;49.158;8.632;2022-08-02T04:38:20;100585.88;;;29.54;35.82
19150;BME280;9707;49.158;8.632;2022-08-02T04:40:53;100595.13;;;29.53;35.78
19150;BME280;9707;49.158;8.632;2022-08-02T04:43:20;100593.41;;;29.52;35.63
19150;BME280;9707;49.158;8.632;2022-08-02T04:45:47;100595.31;;;29.51;35.93
19150;BME280;9707;49.158;8.632;2022-08-02T04:48:13;100588.97;;;29.51;35.92
19150;BME280;9707;49.158;8.632;2022-08-02T04:50:39;100588.97;;;29.51;35.78
19150;BME280;9707;49.158;8.632;2022-08-02T04:53:04;100588.28;;;29.49;35.91
19150;BME280;9707;49.158;8.632;2022-08-02T04:55:29;100583.63;;;29.49;35.80
19150;BME280;9707;49.158;8.632;2022-08-02T04:57:55;100581.94;;;29.48;35.94
19150;BME280;9707;49.158;8.632;2022-08-02T05:00:26;100586.38;;;29.49;35.65
19150;BME280;9707;49.158;8.632;2022-08-02T05:02:52;100583.81;;;29.48;35.90
19150;BME280;9707;49.158;8.632;2022-08-02T05:05:18;100590.34;;;29.47;35.91
19150;BME280;9707;49.158;8.632;2022-08-02T05:07:43;100590.34;;;29.47;35.68
19150;BME280;9707;49.158;8.632;2022-08-02T05:10:09;100595.16;;;29.45;35.87
19150;BME280;9707;49.158;8.632;2022-08-02T05:12:36;100589.84;;;29.43;35.94
19150;BME280;9707;49.158;8.632;2022-08-02T05:15:02;100595.31;;;29.43;35.80
19150;BME280;9707;49.158;8.632;2022-08-02T05:17:27;100593.63;;;29.42;35.97
19150;BME280;9707;49.158;8.632;2022-08-02T05:19:52;100595.31;;;29.43;36.05
19150;BME280;9707;49.158;8.632;2022-08-02T05:22:18;100598.25;;;29.42;36.04
19150;BME280;9707;49.158;8.632;2022-08-02T05:24:43;100590.00;;;29.42;35.94
19150;BME280;9707;49.158;8.632;2022-08-02T05:27:08;100591.72;;;29.43;35.90
19150;BME280;9707;49.158;8.632;2022-08-02T05:29:34;100598.06;;;29.43;36.03
19150;BME280;9707;49.158;8.632;2022-08-02T05:31:59;100593.63;;;29.42;36.04
19150;BME280;9707;49.158;8.632;2022-08-02T05:34:24;100597.41;;;29.41;35.87
19150;BME280;9707;49.158;8.632;2022-08-02T05:36:49;100609.91;;;29.44;36.02
19150;BME280;9707;49.158;8.632;2022-08-02T05:39:15;100604.59;;;29.42;36.18
19150;BME280;9707;49.158;8.632;2022-08-02T05:41:41;100614.53;;;29.43;36.17
19150;BME280;9707;49.158;8.632;2022-08-02T05:44:06;100599.78;;;29.44;36.08
19150;BME280;9707;49.158;8.632;2022-08-02T05:46:31;100608.72;;;29.46;35.96
19150;BME280;9707;49.158;8.632;2022-08-02T05:48:57;100615.03;;;29.47;36.21
19150;BME280;9707;49.158;8.632;2022-08-02T05:51:49;100612.31;;;29.47;35.90
19150;BME280;9707;49.158;8.632;2022-08-02T05:59:33;100621.25;;;29.49;35.90
19150;BME280;9707;49.158;8.632;2022-08-02T06:02:11;100617.44;;;29.50;36.08
19150;BME280;9707;49.158;8.632;2022-08-02T06:05:13;100613.66;;;29.51;36.01
19150;BME280;9707;49.158;8.632;2022-08-02T06:07:44;100615.53;;;29.50;36.22
19150;BME280;9707;49.158;8.632;2022-08-02T06:10:11;100617.28;;;29.51;35.95
19150;BME280;9707;49.158;8.632;2022-08-02T06:12:47;100607.13;;;29.52;36.13
19150;BME280;9707;49.158;8.632;2022-08-02T06:15:16;100604.41;;;29.52;36.05
19150;BME280;9707;49.158;8.632;2022-08-02T06:17:41;100609.88;;;29.52;36.05
19150;BME280;9707;49.158;8.632;2022-08-02T06:20:09;100604.41;;;29.52;36.25
19150;BME280;9707;49.158;8.632;2022-08-02T06:22:39;100608.72;;;29.54;36.20
19150;BME280;9707;49.158;8.632;2022-08-02T06:25:06;100611.28;;;29.56;36.37
19150;BME280;9707;49.158;8.632;2022-08-02T06:27:32;100612.16;;;29.56;35.93
19150;BME280;9707;49.158;8.632;2022-08-02T06:29:58;100614.69;;;29.58;36.08
19150;BME280;9707;49.158;8.632;2022-08-02T06:32:25;100609.22;;;29.58;35.80
19150;BME280;9707;49.158;8.632;2022-08-02T06:34:51;100616.44;;;29.59;36.07
19150;BME280;9707;49.158;8.632;2022-08-02T06:37:27;100618.16;;;29.60;36.11
19150;BME280;9707;49.158;8.632;2022-08-02T06:42:49;100618.31;;;29.58;35.92
19150;BME280;9707;49.158;8.632;2022-08-02T06:45:16;100601.84;;;29.58;36.24
19150;BME280;9707;49.158;8.632;2022-08-02T06:47:41;100608.00;;;29.60;36.05
19150;BME280;9707;49.158;8.632;2022-08-02T06:50:08;100611.63;;;29.61;36.23
19150;BME280;9707;49.158;8.632;2022-08-02T06:52:34;100608.00;;;29.60;36.29
19150;BME280;9707;49.158;8.632;2022-08-02T06:55:01;100614.38;;;29.61;35.98
19150;BME280;9707;49.158;8.632;2022-08-02T06:57:27;100614.38;;;29.61;36.24
19150;BME280;9707;49.158;8.632;2022-08-02T06:59:53;100617.13;;;29.61;36.12
19150;BME280;9707;49.158;8.632;2022-08-02T07:02:19;100618.81;;;29.62;36.30
19150;BME280;9707;49.158;8.632;2022-08-02T07:04:44;100616.78;;;29.64;36.05
19150;BME280;9707;49.158;8.632;2022-08-02T07:07:09;100620.34;;;29.64;36.36
19150;BME280;9707;49.158;8.632;2022-08-02T07:09:35;100623.97;;;29.65;36.29
19150;BME280;9707;49.158;8.632;2022-08-02T07:12:00;100622.94;;;29.66;36.14
19150;BME280;9707;49.158;8.632;2022-08-02T07:14:26;100620.84;;;29.68;36.02
19150;BME280;9707;49.158;8.632;2022-08-02T07:16:51;100619.16;;;29.67;36.19
19150;BME280;9707;49.158;8.632;2022-08-02T07:19:17;100628.09;;;29.69;36.32
19150;BME280;9707;49.158;8.632;2022-08-02T07:21:43;100634.41;;;29.69;36.15
19150;BME280;9707;49.158;8.632;2022-08-02T07:24:08;100626.00;;;29.71;36.09
19150;BME280;9707;49.158;8.632;2022-08-02T07:26:33;100626.00;;;29.71;35.97
19150;BME280;9707;49.158;8.632;2022-08-02T07:28:59;100632.16;;;29.73;36.23
19150;BME280;9707;49.158;8.632;2022-08-02T07:31:24;100630.28;;;29.73;36.25
19150;BME280;9707;49.158;8.632;2022-08-02T07:33:50;100635.78;;;29.73;36.05
19150;BME280;9707;49.158;8.632;2022-08-02T07:36:15;100631.16;;;29.74;36.15
19150;BME280;9707;49.158;8.632;2022-08-02T07:38:41;100635.63;;;29.75;35.99
19150;BME280;9707;49.158;8.632;2022-08-02T07:41:06;100642.81;;;29.76;35.95
19150;BME280;9707;49.158;8.632;2022-08-02T07:43:31;100639.03;;;29.77;35.87
19150;BME280;9707;49.158;8.632;2022-08-02T07:45:56;100631.66;;;29.77;35.89
19150;BME280;9707;49.158;8.632;2022-08-02T07:48:22;100634.03;;;29.80;35.97
19150;BME280;9707;49.158;8.632;2022-08-02T07:50:47;100626.66;;;29.81;35.84
19150;BME280;9707;49.158;8.632;2022-08-02T07:53:13;100620.13;;;29.82;35.67
19150;BME280;9707;49.158;8.632;2022-08-02T07:55:39;100624.25;;;29.86;35.36
19150;BME280;9707;49.158;8.632;2022-08-02T07:58:04;100627.66;;;29.88;35.32
19150;BME280;9707;49.158;8.632;2022-08-02T08:00:30;100623.91;;;29.89;35.25
19150;BME280;9707;49.158;8.632;2022-08-02T08:02:55;100630.06;;;29.91;35.41
19150;BME280;9707;49.158;8.632;2022-08-02T08:05:21;100619.75;;;29.93;35.28
19150;BME280;9707;49.158;8.632;2022-08-02T08:07:47;100628.69;;;29.95;35.41
19150;BME280;9707;49.158;8.632;2022-08-02T08:10:13;100620.28;;;29.96;35.17
19150;BME280;9707;49.158;8.632;2022-08-02T08:12:38;100621.13;;;29.97;35.28
19150;BME280;9707;49.158;8.632;2022-08-02T08:15:04;100618.19;;;29.98;35.10
19150;BME280;9707;49.158;8.632;2022-08-02T08:17:29;100608.06;;;29.99;34.95
19150;BME280;9707;49.158;8.632;2022-08-02T08:19:55;100609.78;;;30.00;35.08
19150;BME280;9707;49.158;8.632;2022-08-02T08:22:22;100606.00;;;30.01;34.97
19150;BME280;9707;49.158;8.632;2022-08-02T08:24:48;100603.91;;;30.03;34.87
19150;BME280;9707;49.158;8.632;2022-08-02T08:27:13;100603.75;;;30.04;34.81
19150;BME280;9707;49.158;8.632;2022-08-02T08:29:43;100608.69;;;30.09;35.02
19150;BME280;9707;49.158;8.632;2022-08-02T08:32:09;100614.00;;;30.10;34.47
19150;BME280;9707;49.158;8.632;2022-08-02T08:34:35;100611.78;;;30.14;34.69
19150;BME280;9707;49.158;8.632;2022-08-02T08:37:00;100609.03;;;30.14;34.18
19150;BME280;9707;49.158;8.632;2022-08-02T08:39:28;100605.63;;;30.12;34.31
19150;BME280;9707;49.158;8.632;2022-08-02T08:41:53;100600.78;;;30.14;34.72
19150;BME280;9707;49.158;8.632;2022-08-02T08:44:18;100602.53;;;30.15;34.72
19150;BME280;9707;49.158;8.632;2022-08-02T08:46:48;100607.81;;;30.16;34.65
19150;BME280;9707;49.158;8.632;2022-08-02T08:49:30;100599.41;;;30.18;34.68
19150;BME280;9707;49.158;8.632;2022-08-02T08:52:02;100598.38;;;30.19;34.54
19150;BME280;9707;49.158;8.632;2022-08-02T08:54:28;100600.94;;;30.20;34.46
19150;BME280;9707;49.158;8.632;2022-08-02T08:56:56;100594.22;;;30.23;34.59
19150;BME280;9707;49.158;8.632;2022-08-02T08:59:21;100601.25;;;30.25;34.15
19150;BME280;9707;49.158;8.632;2022-08-02T09:01:49;100603.66;;;30.28;34.19
19150;BME280;9707;49.158;8.632;2022-08-02T09:04:15;100596.06;;;30.30;34.15
19150;BME280;9707;49.158;8.632;2022-08-02T09:06:40;100590.22;;;30.33;34.34
19150;BME280;9707;49.158;8.632;2022-08-02T09:09:06;100589.00;;;30.36;34.07
19150;BME280;9707;49.158;8.632;2022-08-02T09:11:32;100592.44;;;30.38;34.19
19150;BME280;9707;49.158;8.632;2022-08-02T09:13:59;100592.06;;;30.41;33.99
19150;BME280;9707;49.158;8.632;2022-08-02T09:16:32;100584.50;;;30.43;34.05
19150;BME280;9707;49.158;8.632;2022-08-02T09:18:59;100591.91;;;30.42;33.86
19150;BME280;9707;49.158;8.632;2022-08-02T09:21:34;100588.28;;;30.42;34.10
19150;BME280;9707;49.158;8.632;2022-08-02T09:24:00;100586.19;;;30.44;34.15
19150;BME280;9707;49.158;8.632;2022-08-02T09:26:25;100586.88;;;30.46;34.10
19150;BME280;9707;49.158;8.632;2022-08-02T09:28:58;100594.09;;;30.47;33.36
19150;BME280;9707;49.158;8.632;2022-08-02T09:31:24;100604.44;;;30.45;33.29
19150;BME280;9707;49.158;8.632;2022-08-02T09:33:56;100592.56;;;30.44;33.33
19150;BME280;9707;49.158;8.632;2022-08-02T09:36:23;100592.56;;;30.44;33.37
19150;BME280;9707;49.158;8.632;2022-08-02T09:41:26;100584.63;;;30.49;33.19
19150;BME280;9707;49.158;8.632;2022-08-02T09:43:52;100583.41;;;30.52;33.54
19150;BME280;9707;49.158;8.632;2022-08-02T09:46:21;100579.63;;;30.53;33.55
19150;BME280;9707;49.158;8.632;2022-08-02T09:51:16;100570.63;;;30.59;33.45
19150;BME280;9707;49.158;8.632;2022-08-02T09:53:42;100568.75;;;30.59;33.22
19150;BME280;9707;49.158;8.632;2022-08-02T09:56:07;100570.44;;;30.60;33.48
19150;BME280;9707;49.158;8.632;2022-08-02T09:58:37;100568.56;;;30.61;33.05
19150;BME280;9707;49.158;8.632;2022-08-02T10:01:03;100567.53;;;30.62;33.31
19150;BME280;9707;49.158;8.632;2022-08-02T10:03:28;100568.19;;;30.64;33.22
19150;BME280;9707;49.158;8.632;2022-08-02T10:05:55;100565.25;;;30.65;33.10
19150;BME280;9707;49.158;8.632;2022-08-02T10:08:23;100561.31;;;30.68;33.09
19150;BME280;9707;49.158;8.632;2022-08-02T10:10:49;100563.03;;;30.69;32.94
19150;BME280;9707;49.158;8.632;2022-08-02T10:13:33;100555.47;;;30.71;32.88
19150;BME280;9707;49.158;8.632;2022-08-02T10:16:00;100554.41;;;30.72;33.04
19150;BME280;9707;49.158;8.632;2022-08-02T10:18:27;100562.28;;;30.75;32.78
19150;BME280;9707;49.158;8.632;2022-08-02T10:20:54;100558.53;;;30.76;32.94
19150;BME280;9707;49.158;8.632;2022-08-02T10:23:21;100561.06;;;30.77;32.89
19150;BME280;9707;49.158;8.632;2022-08-02T10:25:50;100550.94;;;30.78;32.14
19150;BME280;9707;49.158;8.632;2022-08-02T10:28:19;100555.56;;;30.77;32.23
19150;BME280;9707;49.158;8.632;2022-08-02T10:30:52;100555.56;;;30.77;31.78
19150;BME280;9707;49.158;8.632;2022-08-02T10:33:19;100548.00;;;30.79;31.69
19150;BME280;9707;49.158;8.632;2022-08-02T10:35:46;100544.19;;;30.80;32.04
19150;BME280;9707;49.158;8.632;2022-08-02T10:38:15;100546.78;;;30.82;31.56
19150;BME280;9707;49.158;8.632;2022-08-02T10:43:11;100544.31;;;30.87;31.66
19150;BME280;9707;49.158;8.632;2022-08-02T10:45:36;100542.22;;;30.89;31.12
19150;BME280;9707;49.158;8.632;2022-08-02T10:48:11;100538.44;;;30.90;30.85
19150;BME280;9707;49.158;8.632;2022-08-02T10:55:44;100526.72;;;30.96;31.75
19150;BME280;9707;49.158;8.632;2022-08-02T10:58:20;100521.84;;;30.98;31.24
19150;BME280;9707;49.158;8.632;2022-08-02T11:00:48;100518.75;;;31.01;31.56
19150;BME280;9707;49.158;8.632;2022-08-02T11:03:33;100525.78;;;31.03;31.22
19150;BME280;9707;49.158;8.632;2022-08-02T11:08:31;100511.63;;;31.06;31.47
19150;BME280;9707;49.158;8.632;2022-08-02T11:10:58;100508.69;;;31.08;30.41
19150;BME280;9707;49.158;8.632;2022-08-02T11:13:25;100505.28;;;31.06;31.58
19150;BME280;9707;49.158;8.632;2022-08-02T11:16:04;100507.28;;;31.12;31.95
19150;BME280;9707;49.158;8.632;2022-08-02T11:21:23;100504.13;;;31.15;30.87
19150;BME280;9707;49.158;8.632;2022-08-02T11:23:49;100498.63;;;31.15;30.64
19150;BME280;9707;49.158;8.632;2022-08-02T11:29:03;100497.94;;;31.21;31.46
19150;BME280;9707;49.158;8.632;2022-08-02T11:31:37;100497.72;;;31.22;31.58
19150;BME280;9707;49.158;8.632;2022-08-02T11:34:03;100499.25;;;31.25;30.91
19150;BME280;9707;49.158;8.632;2022-08-02T11:36:29;100489.97;;;31.26;30.88
19150;BME280;9707;49.158;8.632;2022-08-02T11:39:11;100497.16;;;31.27;30.56
19150;BME280;9707;49.158;8.632;2022-08-02T11:41:37;100500.56;;;31.29;30.26
19150;BME280;9707;49.158;8.632;2022-08-02T11:44:02;100497.66;;;31.30;30.23
19150;BME280;9707;49.158;8.632;2022-08-02T11:46:28;100494.53;;;31.33;30.46
19150;BME280;9707;49.158;8.632;2022-08-02T11:48:53;100494.31;;;31.35;30.05
19150;BME280;9707;49.158;8.632;2022-08-02T11:51:18;100491.38;;;31.36;30.37
19150;BME280;9707;49.158;8.632;2022-08-02T11:53:49;100485.50;;;31.39;30.80
19150;BME280;9707;49.158;8.632;2022-08-02T11:56:15;100493.56;;;31.41;30.45
19150;BME280;9707;49.158;8.632;2022-08-02T11:58:59;100489.59;;;31.43;30.28
19150;BME280;9707;49.158;8.632;2022-08-02T12:01:26;100490.25;;;31.45;30.29
19150;BME280;9707;49.158;8.632;2022-08-02T12:03:52;100481.97;;;31.45;30.16
19150;BME280;9707;49.158;8.632;2022-08-02T12:06:17;100482.44;;;31.49;30.36
19150;BME280;9707;49.158;8.632;2022-08-02T12:08:43;100483.78;;;31.53;30.28
19150;BME280;9707;49.158;8.632;2022-08-02T12:11:08;100481.69;;;31.55;30.31
19150;BME280;9707;49.158;8.632;2022-08-02T12:13:41;100490.63;;;31.57;30.06
19150;BME280;9707;49.158;8.632;2022-08-02T12:16:12;100475.59;;;31.59;30.08
19150;BME280;9707;49.158;8.632;2022-08-02T12:18:56;100481.78;;;31.61;30.33
19150;BME280;9707;49.158;8.632;2022-08-02T12:21:40;100471.63;;;31.62;30.06
19150;BME280;9707;49.158;8.632;2022-08-02T12:24:05;100473.31;;;31.63;29.94
19150;BME280;9707;49.158;8.632;2022-08-02T12:26:43;100475.31;;;31.69;30.28
19150;BME280;9707;49.158;8.632;2022-08-02T12:29:09;100482.50;;;31.70;30.47
19150;BME280;9707;49.158;8.632;2022-08-02T12:31:45;100471.13;;;31.73;29.74
19150;BME280;9707;49.158;8.632;2022-08-02T12:34:16;100467.34;;;31.74;29.34
19150;BME280;9707;49.158;8.632;2022-08-02T12:36:43;100461.84;;;31.74;29.58
19150;BME280;9707;49.158;8.632;2022-08-02T12:39:44;100473.31;;;31.77;29.66
19150;BME280;9707;49.158;8.632;2022-08-02T12:42:12;100473.13;;;31.79;29.35
19150;BME280;9707;49.158;8.632;2022-08-02T12:44:52;100464.69;;;31.80;29.40
19150;BME280;9707;49.158;8.632;2022-08-02T12:47:18;100463.63;;;31.81;28.84
19150;BME280;9707;49.158;8.632;2022-08-02T12:49:46;100459.81;;;31.82;29.16
19150;BME280;9707;49.158;8.632;2022-08-02T12:52:22;100454.78;;;31.86;28.70
19150;BME280;9707;49.158;8.632;2022-08-02T12:54:48;100451.00;;;31.87;28.73
19150;BME280;9707;49.158;8.632;2022-08-02T12:57:16;100458.84;;;31.90;28.58
19150;BME280;9707;49.158;8.632;2022-08-02T12:59:47;100448.50;;;31.92;28.68
19150;BME280;9707;49.158;8.632;2022-08-02T13:02:13;100451.91;;;31.94;28.27
19150;BME280;9707;49.158;8.632;2022-08-02T13:04:41;100451.53;;;31.97;28.71
19150;BME280;9707;49.158;8.632;2022-08-02T13:07:06;100452.81;;;32.01;28.22
19150;BME280;9707;49.158;8.632;2022-08-02T13:09:40;100445.22;;;32.03;28.72
19150;BME280;9707;49.158;8.632;2022-08-02T13:12:07;100447.59;;;32.06;28.37
19150;BME280;9707;49.158;8.632;2022-08-02T13:14:33;100447.19;;;32.09;27.63
19150;BME280;9707;49.158;8.632;2022-08-02T13:16:59;100436.00;;;32.10;28.75
19150;BME280;9707;49.158;8.632;2022-08-02T13:19:25;100443.00;;;32.13;28.56
19150;BME280;9707;49.158;8.632;2022-08-02T13:21:51;100429.22;;;32.13;28.51
19150;BME280;9707;49.158;8.632;2022-08-02T13:24:17;100436.25;;;32.15;28.48
19150;BME280;9707;49.158;8.632;2022-08-02T13:26:43;100437.53;;;32.19;28.95
19150;BME280;9707;49.158;8.632;2022-08-02T13:29:10;100424.44;;;32.21;29.02
19150;BME280;9707;49.158;8.632;2022-08-02T13:31:35;100431.47;;;32.24;29.49
19150;BME280;9707;49.158;8.632;2022-08-02T13:34:04;100423.88;;;32.26;29.29
19150;BME280;9707;49.158;8.632;2022-08-02T13:36:31;100436.59;;;32.27;28.38
19150;BME280;9707;49.158;8.632;2022-08-02T13:38:56;100421.78;;;32.28;28.80
19150;BME280;9707;49.158;8.632;2022-08-02T13:41:22;100418.81;;;32.29;28.87
19150;BME280;9707;49.158;8.632;2022-08-02T13:43:47;100423.47;;;32.29;28.78
19150;BME280;9707;49.158;8.632;2022-08-02T13:46:12;100418.59;;;32.31;27.95
19150;BME280;9707;49.158;8.632;2022-08-02T13:48:38;100419.66;;;32.30;28.14